sensor_id;sensor_type;location;lat;lon;timestamp;pressure;altitude;pressure_sealevel;temperature;humidity
81931;BME280;71395;43.488;1.472;2024-03-23T00:53:29;100054.03;;;15.72;73.86
81931;BME280;71395;43.488;1.472;2024-03-23T00:55:55;100053.75;;;15.73;73.97
81931;BME280;71395;43.488;1.472;2024-03-23T00:58:21;100046.25;;;15.65;74.55
81931;BME280;71395;43.488;1.472;2024-03-23T01:00:47;100038.19;;;15.60;73.67
81931;BME280;71395;43.488;1.472;2024-03-23T01:03:12;100057.31;;;15.69;74.30
81931;BME280;71395;43.488;1.472;2024-03-23T01:05:38;100056.75;;;15.72;74.94
81931;BME280;71395;43.488;1.472;2024-03-23T01:08:04;100056.81;;;15.67;73.57
81931;BME280;71395;43.488;1.472;2024-03-23T01:10:30;100059.50;;;15.67;74.49
81931;BME280;71395;43.488;1.472;2024-03-23T01:12:56;100068.34;;;15.72;74.94
81931;BME280;71395;43.488;1.472;2024-03-23T01:15:21;100067.75;;;15.75;74.62
81931;BME280;71395;43.488;1.472;2024-03-23T01:17:47;100057.31;;;15.69;74.85
81931;BME280;71395;43.488;1.472;2024-03-23T01:20:13;100071.31;;;15.71;74.21
81931;BME280;71395;43.488;1.472;2024-03-23T01:22:38;100070.88;;;15.64;73.81
81931;BME280;71395;43.488;1.472;2024-03-23T01:25:04;100066.81;;;15.61;74.87
81931;BME280;71395;43.488;1.472;2024-03-23T01:27:30;100075.81;;;15.57;74.25
81931;BME280;71395;43.488;1.472;2024-03-23T01:29:55;100067.06;;;15.41;75.30
81931;BME280;71395;43.488;1.472;2024-03-23T01:32:21;100080.06;;;15.63;75.12
81931;BME280;71395;43.488;1.472;2024-03-23T01:34:47;100070.97;;;15.54;75.40
81931;BME280;71395;43.488;1.472;2024-03-23T01:37:12;100092.75;;;15.67;74.98
81931;BME280;71395;43.488;1.472;2024-03-23T01:39:38;100102.22;;;15.65;73.86
81931;BME280;71395;43.488;1.472;2024-03-23T01:42:04;100090.88;;;15.63;74.39
81931;BME280;71395;43.488;1.472;2024-03-23T01:44:30;100079.53;;;15.61;74.55
81931;BME280;71395;43.488;1.472;2024-03-23T01:46:55;100081.69;;;15.64;73.70
81931;BME280;71395;43.488;1.472;2024-03-23T01:49:21;100063.19;;;15.52;74.40
81931;BME280;71395;43.488;1.472;2024-03-23T01:51:47;100081.69;;;15.64;73.71
81931;BME280;71395;43.488;1.472;2024-03-23T01:54:13;100072.03;;;15.58;73.76
81931;BME280;71395;43.488;1.472;2024-03-23T01:56:39;100097.78;;;15.74;74.72
81931;BME280;71395;43.488;1.472;2024-03-23T01:59:05;100080.31;;;15.66;73.45
81931;BME280;71395;43.488;1.472;2024-03-23T02:01:32;100101.00;;;15.76;74.42
81931;BME280;71395;43.488;1.472;2024-03-23T02:03:58;100102.09;;;15.75;74.05
81931;BME280;71395;43.488;1.472;2024-03-23T02:06:24;100103.19;;;15.74;74.04
81931;BME280;71395;43.488;1.472;2024-03-23T02:08:50;100095.66;;;15.71;74.33
81931;BME280;71395;43.488;1.472;2024-03-23T02:11:16;100110.88;;;15.67;73.75
81931;BME280;71395;43.488;1.472;2024-03-23T02:13:42;100111.16;;;15.60;73.60
81931;BME280;71395;43.488;1.472;2024-03-23T02:16:07;100126.00;;;15.63;74.23
81931;BME280;71395;43.488;1.472;2024-03-23T02:18:34;100122.25;;;15.59;73.12
81931;BME280;71395;43.488;1.472;2024-03-23T02:20:59;100097.75;;;15.50;73.57
81931;BME280;71395;43.488;1.472;2024-03-23T02:23:25;100129.38;;;15.49;72.75
81931;BME280;71395;43.488;1.472;2024-03-23T02:25:51;100134.22;;;15.52;72.57
81931;BME280;71395;43.488;1.472;2024-03-23T02:28:18;100119.97;;;15.47;72.42
81931;BME280;71395;43.488;1.472;2024-03-23T02:30:44;100125.13;;;15.43;71.65
81931;BME280;71395;43.488;1.472;2024-03-23T02:33:10;100116.03;;;15.34;71.67
81931;BME280;71395;43.488;1.472;2024-03-23T02:35:36;100136.00;;;15.38;72.16
81931;BME280;71395;43.488;1.472;2024-03-23T02:38:02;100136.63;;;15.30;71.96
81931;BME280;71395;43.488;1.472;2024-03-23T02:40:28;100133.66;;;15.32;71.44
81931;BME280;71395;43.488;1.472;2024-03-23T02:42:53;100143.34;;;15.33;70.85
81931;BME280;71395;43.488;1.472;2024-03-23T02:45:19;100146.84;;;15.33;70.84
81931;BME280;71395;43.488;1.472;2024-03-23T02:47:45;100141.03;;;15.21;70.27
81931;BME280;71395;43.488;1.472;2024-03-23T02:50:11;100170.47;;;15.22;70.52
81931;BME280;71395;43.488;1.472;2024-03-23T02:52:37;100163.47;;;15.16;70.26
81931;BME280;71395;43.488;1.472;2024-03-23T02:55:03;100156.81;;;15.09;69.80
81931;BME280;71395;43.488;1.472;2024-03-23T02:57:29;100151.00;;;14.91;69.86
81931;BME280;71395;43.488;1.472;2024-03-23T02:59:55;100163.44;;;14.92;68.78
81931;BME280;71395;43.488;1.472;2024-03-23T03:02:21;100144.13;;;14.75;68.31
81931;BME280;71395;43.488;1.472;2024-03-23T03:04:47;100146.81;;;14.75;68.65
81931;BME280;71395;43.488;1.472;2024-03-23T03:07:13;100141.72;;;14.73;68.33
81931;BME280;71395;43.488;1.472;2024-03-23T03:09:39;100142.09;;;14.57;68.19
81931;BME280;71395;43.488;1.472;2024-03-23T03:12:07;100141.09;;;14.47;67.32
81931;BME280;71395;43.488;1.472;2024-03-23T03:14:34;100164.78;;;14.45;68.56
81931;BME280;71395;43.488;1.472;2024-03-23T03:17:00;100150.28;;;14.36;68.07
81931;BME280;71395;43.488;1.472;2024-03-23T03:19:25;100128.75;;;14.26;68.30
81931;BME280;71395;43.488;1.472;2024-03-23T03:21:51;100148.44;;;14.27;68.58
81931;BME280;71395;43.488;1.472;2024-03-23T03:24:17;100134.84;;;14.03;67.47
81931;BME280;71395;43.488;1.472;2024-03-23T03:26:43;100173.00;;;14.25;67.78
81931;BME280;71395;43.488;1.472;2024-03-23T03:29:08;100175.69;;;14.25;67.86
81931;BME280;71395;43.488;1.472;2024-03-23T03:31:34;100170.63;;;14.18;68.14
81931;BME280;71395;43.488;1.472;2024-03-23T04:21:27;100233.59;;;13.42;69.66
81931;BME280;71395;43.488;1.472;2024-03-23T04:51:21;100289.59;;;13.10;68.62
81931;BME280;71395;43.488;1.472;2024-03-23T04:53:47;100294.41;;;13.03;68.99
81931;BME280;71395;43.488;1.472;2024-03-23T09:12:18;100552.06;;;12.38;74.11
81931;BME280;71395;43.488;1.472;2024-03-23T09:14:43;100540.13;;;12.24;74.55
81931;BME280;71395;43.488;1.472;2024-03-23T09:17:09;100544.03;;;12.11;74.39
81931;BME280;71395;43.488;1.472;2024-03-23T10:30:14;100531.56;;;13.64;62.81
81931;BME280;71395;43.488;1.472;2024-03-23T10:42:45;100519.75;;;13.85;60.90
81931;BME280;71395;43.488;1.472;2024-03-23T10:58:46;100489.06;;;14.02;59.52
81931;BME280;71395;43.488;1.472;2024-03-23T11:01:12;100482.06;;;14.06;60.01
81931;BME280;71395;43.488;1.472;2024-03-23T11:03:40;100472.34;;;14.10;59.57
81931;BME280;71395;43.488;1.472;2024-03-23T11:06:10;100482.31;;;14.25;59.78
81931;BME280;71395;43.488;1.472;2024-03-23T11:08:38;100480.44;;;14.30;59.13
81931;BME280;71395;43.488;1.472;2024-03-23T11:11:20;100481.22;;;14.41;57.48
81931;BME280;71395;43.488;1.472;2024-03-23T11:13:50;100469.09;;;14.43;57.51
81931;BME280;71395;43.488;1.472;2024-03-23T11:16:30;100477.44;;;14.42;57.39
81931;BME280;71395;43.488;1.472;2024-03-23T11:19:34;100473.69;;;14.43;56.57
81931;BME280;71395;43.488;1.472;2024-03-23T11:22:01;100463.97;;;14.47;58.24
81931;BME280;71395;43.488;1.472;2024-03-23T11:24:27;100441.31;;;14.43;57.18
81931;BME280;71395;43.488;1.472;2024-03-23T11:26:57;100456.16;;;14.61;57.80
81931;BME280;71395;43.488;1.472;2024-03-23T11:29:29;100448.59;;;14.68;56.20
81931;BME280;71395;43.488;1.472;2024-03-23T11:31:55;100430.78;;;14.57;55.83
81931;BME280;71395;43.488;1.472;2024-03-23T11:34:21;100437.00;;;14.67;56.46
81931;BME280;71395;43.488;1.472;2024-03-23T11:36:48;100432.41;;;14.68;55.28
81931;BME280;71395;43.488;1.472;2024-03-23T11:39:18;100435.88;;;14.73;55.29
81931;BME280;71395;43.488;1.472;2024-03-23T11:48:28;100422.13;;;14.70;55.12
81931;BME280;71395;43.488;1.472;2024-03-23T11:50:56;100406.50;;;14.67;54.90
81931;BME280;71395;43.488;1.472;2024-03-23T11:53:24;100408.31;;;14.77;54.91
81931;BME280;71395;43.488;1.472;2024-03-23T11:55:58;100414.53;;;14.82;54.94
81931;BME280;71395;43.488;1.472;2024-03-23T11:58:25;100410.22;;;14.81;54.45
81931;BME280;71395;43.488;1.472;2024-03-23T12:00:57;100399.41;;;14.81;53.50
81931;BME280;71395;43.488;1.472;2024-03-23T12:03:24;100397.00;;;14.80;53.66
81931;BME280;71395;43.488;1.472;2024-03-23T12:06:02;100394.28;;;14.85;53.33
81931;BME280;71395;43.488;1.472;2024-03-23T12:13:31;100398.88;;;14.84;53.90
81931;BME280;71395;43.488;1.472;2024-03-23T12:16:13;100379.44;;;14.82;53.03
81931;BME280;71395;43.488;1.472;2024-03-23T12:18:40;100361.63;;;14.76;53.72
81931;BME280;71395;43.488;1.472;2024-03-23T12:21:06;100369.19;;;14.79;53.16
81931;BME280;71395;43.488;1.472;2024-03-23T12:23:32;100374.56;;;14.89;53.20
81931;BME280;71395;43.488;1.472;2024-03-23T12:25:58;100358.09;;;14.86;52.73
81931;BME280;71395;43.488;1.472;2024-03-23T12:35:18;100351.88;;;14.85;51.82
81931;BME280;71395;43.488;1.472;2024-03-23T12:37:44;100340.53;;;14.88;52.06
81931;BME280;71395;43.488;1.472;2024-03-23T12:40:10;100329.75;;;14.88;51.57
81931;BME280;71395;43.488;1.472;2024-03-23T12:42:36;100324.59;;;14.92;51.84
81931;BME280;71395;43.488;1.472;2024-03-23T12:45:02;100342.91;;;15.00;51.74
81931;BME280;71395;43.488;1.472;2024-03-23T12:47:30;100317.28;;;14.97;50.95
81931;BME280;71395;43.488;1.472;2024-03-23T12:49:55;100322.63;;;15.08;50.92
81931;BME280;71395;43.488;1.472;2024-03-23T12:52:21;100312.91;;;15.07;51.59
81931;BME280;71395;43.488;1.472;2024-03-23T12:54:49;100300.22;;;15.07;51.20
81931;BME280;71395;43.488;1.472;2024-03-23T15:09:40;100143.88;;;15.59;49.38
81931;BME280;71395;43.488;1.472;2024-03-23T15:12:06;100130.88;;;15.61;48.83
81931;BME280;71395;43.488;1.472;2024-03-23T15:14:32;100137.34;;;15.65;48.77
81931;BME280;71395;43.488;1.472;2024-03-23T16:14:07;100084.44;;;15.35;49.79
81931;BME280;71395;43.488;1.472;2024-03-23T16:16:32;100076.69;;;15.28;49.11
81931;BME280;71395;43.488;1.472;2024-03-23T16:18:58;100070.78;;;15.21;48.98
81931;BME280;71395;43.488;1.472;2024-03-23T16:21:23;100064.59;;;15.20;48.46
81931;BME280;71395;43.488;1.472;2024-03-23T16:23:49;100083.94;;;15.33;48.76
81931;BME280;71395;43.488;1.472;2024-03-23T16:26:15;100090.63;;;15.35;48.80
81931;BME280;71395;43.488;1.472;2024-03-23T16:28:42;100089.59;;;15.31;49.27
